createdAt,value
2024-02-27T00:02:23.323Z,13.73
2024-02-27T00:04:50.309Z,13.70
2024-02-27T00:07:17.463Z,13.70
2024-02-27T00:09:45.686Z,13.73
2024-02-27T00:12:12.667Z,13.67
2024-02-27T00:14:39.699Z,13.69
2024-02-27T00:17:06.654Z,13.73
2024-02-27T00:19:33.687Z,13.74
2024-02-27T00:22:00.658Z,13.77
2024-02-27T00:24:27.608Z,13.76
2024-02-27T00:26:54.726Z,13.76
2024-02-27T00:29:22.964Z,13.75
2024-02-27T00:31:49.928Z,13.73
2024-02-27T00:34:17.378Z,13.75
2024-02-27T00:36:44.550Z,13.75
2024-02-27T00:39:11.733Z,13.74
2024-02-27T00:41:42.536Z,13.75
2024-02-27T00:44:11.253Z,13.75
2024-02-27T00:46:38.992Z,13.75
2024-02-27T00:49:06.262Z,13.67
2024-02-27T00:51:33.389Z,13.63
2024-02-27T00:54:00.841Z,13.56
2024-02-27T00:56:28.003Z,13.53
2024-02-27T00:58:54.926Z,13.54
2024-02-27T01:01:21.790Z,13.57
2024-02-27T01:03:48.894Z,13.60
2024-02-27T01:06:16.043Z,13.63
2024-02-27T01:08:43.136Z,13.65
2024-02-27T01:11:10.110Z,13.65
2024-02-27T01:13:37.211Z,13.59
2024-02-27T01:16:04.620Z,13.61
2024-02-27T01:18:31.813Z,13.53
2024-02-27T01:20:59.651Z,13.55
2024-02-27T01:23:26.920Z,13.56
2024-02-27T01:25:53.823Z,13.51
2024-02-27T01:28:20.707Z,13.50
2024-02-27T01:30:47.684Z,13.40
2024-02-27T01:33:14.784Z,13.41
2024-02-27T01:35:41.936Z,13.43
2024-02-27T01:38:08.867Z,13.42
2024-02-27T01:40:35.829Z,13.41
2024-02-27T01:43:02.732Z,13.16
2024-02-27T01:45:30.123Z,13.10
2024-02-27T01:47:58.033Z,13.05
2024-02-27T01:50:25.784Z,12.99
2024-02-27T01:52:53.604Z,12.63
2024-02-27T01:55:21.200Z,12.50
2024-02-27T01:57:50.370Z,12.42
2024-02-27T02:00:17.939Z,12.47
2024-02-27T02:02:45.941Z,12.56
2024-02-27T02:05:14.207Z,12.61
2024-02-27T02:07:42.015Z,12.69
2024-02-27T02:10:15.506Z,12.71
2024-02-27T02:12:42.650Z,12.72
2024-02-27T02:15:10.086Z,12.64
2024-02-27T02:17:37.181Z,12.66
2024-02-27T02:20:06.687Z,12.65
2024-02-27T02:22:34.917Z,12.70
2024-02-27T02:25:02.387Z,12.77
2024-02-27T02:27:31.601Z,12.66
2024-02-27T02:29:58.656Z,12.70
2024-02-27T02:32:25.646Z,12.56
2024-02-27T02:34:52.632Z,12.62
2024-02-27T02:37:19.817Z,12.53
2024-02-27T02:39:46.766Z,12.55
2024-02-27T02:42:13.840Z,12.57
2024-02-27T02:44:40.717Z,12.58
2024-02-27T02:47:07.636Z,12.57
2024-02-27T02:49:35.717Z,12.62
2024-02-27T02:52:03.928Z,12.60
2024-02-27T02:54:30.895Z,12.65
2024-02-27T02:56:57.987Z,12.59
2024-02-27T02:59:26.872Z,12.51
2024-02-27T03:01:53.843Z,12.44
2024-02-27T03:04:20.812Z,12.52
2024-02-27T03:06:47.878Z,12.61
2024-02-27T03:09:14.897Z,12.59
2024-02-27T03:11:41.795Z,12.48
2024-02-27T03:14:08.692Z,12.46
2024-02-27T03:16:35.643Z,12.49
2024-02-27T03:19:04.100Z,12.44
2024-02-27T03:21:33.741Z,12.53
2024-02-27T03:24:00.833Z,12.58
2024-02-27T03:26:27.708Z,12.64
2024-02-27T03:28:54.582Z,12.62
2024-02-27T03:31:21.470Z,12.66
2024-02-27T03:33:48.564Z,12.66
2024-02-27T03:36:15.614Z,12.64
2024-02-27T03:38:43.779Z,12.62
2024-02-27T03:41:14.654Z,12.57
2024-02-27T03:43:42.824Z,12.54
2024-02-27T03:46:10.551Z,12.53
2024-02-27T03:48:38.035Z,12.59
2024-02-27T03:51:05.316Z,12.60
2024-02-27T03:53:32.617Z,12.56
2024-02-27T03:55:59.928Z,12.63
2024-02-27T03:58:26.856Z,12.65
2024-02-27T04:00:54.482Z,12.60
2024-02-27T04:03:21.504Z,12.53
2024-02-27T04:05:48.607Z,12.64
2024-02-27T04:08:15.539Z,12.64
2024-02-27T04:10:42.508Z,12.65
2024-02-27T04:13:11.076Z,12.60
2024-02-27T04:15:37.994Z,12.63
2024-02-27T04:18:06.076Z,12.50
2024-02-27T04:20:33.015Z,12.47
2024-02-27T04:22:59.921Z,12.51
2024-02-27T04:25:26.879Z,12.35
2024-02-27T04:27:53.781Z,12.12
2024-02-27T04:30:20.641Z,12.05
2024-02-27T04:32:47.646Z,11.95
2024-02-27T04:35:15.925Z,11.80
2024-02-27T04:37:42.827Z,11.74
2024-02-27T04:40:10.524Z,11.70
2024-02-27T04:42:37.653Z,11.68
2024-02-27T04:45:05.033Z,11.53
2024-02-27T04:47:32.205Z,11.50
2024-02-27T04:49:59.430Z,11.48
2024-02-27T04:52:26.509Z,11.42
2024-02-27T04:54:53.435Z,11.38
2024-02-27T04:57:21.763Z,11.39
2024-02-27T04:59:48.657Z,11.18
2024-02-27T05:02:15.640Z,11.13
2024-02-27T05:04:42.511Z,11.11
2024-02-27T05:07:09.622Z,10.94
2024-02-27T05:09:36.828Z,10.93
2024-02-27T05:12:04.540Z,10.96
2024-02-27T05:14:31.536Z,11.05
2024-02-27T05:16:58.377Z,10.86
2024-02-27T05:19:25.519Z,10.97
2024-02-27T05:21:52.618Z,10.97
2024-02-27T05:24:19.654Z,10.85
2024-02-27T05:26:47.564Z,10.91
2024-02-27T05:29:15.060Z,10.89
2024-02-27T05:31:42.172Z,10.74
2024-02-27T05:34:09.131Z,10.66
2024-02-27T05:36:36.137Z,10.66
2024-02-27T05:39:03.366Z,10.63
2024-02-27T05:41:30.251Z,10.62
2024-02-27T05:43:57.121Z,10.56
2024-02-27T05:46:24.063Z,10.59
2024-02-27T05:48:51.147Z,10.64
2024-02-27T05:51:21.197Z,10.45
2024-02-27T05:53:48.486Z,10.60
2024-02-27T05:56:15.395Z,10.78
2024-02-27T05:58:42.363Z,10.76
2024-02-27T06:01:09.389Z,10.86
2024-02-27T06:03:36.703Z,11.00
2024-02-27T06:06:03.953Z,10.99
2024-02-27T06:08:30.938Z,11.01
2024-02-27T06:10:57.879Z,11.02
2024-02-27T06:13:26.392Z,11.12
2024-02-27T06:15:54.653Z,11.19
2024-02-27T06:18:21.687Z,11.18
2024-02-27T06:21:07.131Z,11.24
2024-02-27T06:23:34.025Z,11.28
2024-02-27T06:26:01.092Z,11.13
2024-02-27T06:28:27.994Z,11.22
2024-02-27T06:30:54.967Z,11.21
2024-02-27T06:33:22.384Z,11.28
2024-02-27T06:35:49.328Z,11.31
2024-02-27T06:38:16.449Z,11.21
2024-02-27T06:40:44.653Z,11.28
2024-02-27T06:43:11.705Z,11.29
2024-02-27T06:45:38.749Z,11.29
2024-02-27T06:48:06.204Z,11.27
2024-02-27T06:50:33.392Z,11.34
2024-02-27T06:53:00.830Z,11.24
2024-02-27T06:55:27.738Z,11.20
2024-02-27T06:57:54.648Z,11.28
2024-02-27T07:00:22.011Z,11.16
2024-02-27T07:02:51.087Z,11.04
2024-02-27T07:05:18.287Z,10.69
2024-02-27T07:07:45.193Z,10.71
2024-02-27T07:10:15.076Z,10.73
2024-02-27T07:12:44.805Z,10.79
2024-02-27T07:15:12.703Z,10.73
2024-02-27T07:17:39.599Z,10.86
2024-02-27T07:20:10.193Z,10.82
2024-02-27T07:22:37.180Z,10.74
2024-02-27T07:25:04.213Z,10.60
2024-02-27T07:27:31.080Z,10.50
2024-02-27T07:29:58.078Z,10.32
2024-02-27T07:32:25.170Z,10.41
2024-02-27T07:34:52.202Z,10.46
2024-02-27T07:37:19.200Z,10.53
2024-02-27T07:39:46.473Z,10.48
2024-02-27T07:42:14.064Z,10.68
2024-02-27T07:44:41.076Z,10.59
2024-02-27T07:47:07.955Z,10.73
2024-02-27T07:49:34.872Z,10.89
2024-02-27T07:52:01.960Z,10.70
2024-02-27T07:54:29.028Z,10.83
2024-02-27T07:56:55.909Z,10.89
2024-02-27T07:59:22.858Z,10.90
2024-02-27T08:01:49.816Z,10.94
2024-02-27T08:04:18.795Z,11.00
2024-02-27T08:06:46.114Z,10.96
2024-02-27T08:09:13.100Z,10.90
2024-02-27T08:11:40.188Z,10.75
2024-02-27T08:14:07.061Z,10.70
2024-02-27T08:16:33.960Z,10.81
2024-02-27T08:19:05.481Z,10.75
2024-02-27T08:21:33.425Z,10.79
2024-02-27T08:24:02.026Z,10.67
2024-02-27T08:26:29.568Z,10.83
2024-02-27T08:28:57.246Z,10.97
2024-02-27T08:31:24.843Z,10.94
2024-02-27T08:33:52.550Z,10.93
2024-02-27T08:36:19.644Z,11.02
2024-02-27T08:38:46.563Z,10.97
2024-02-27T08:41:15.019Z,10.95
2024-02-27T08:43:44.229Z,10.88
2024-02-27T08:46:17.681Z,10.73
2024-02-27T08:48:45.540Z,10.79
2024-02-27T08:51:12.490Z,10.71
2024-02-27T08:53:39.806Z,10.80
2024-02-27T08:56:07.905Z,10.69
2024-02-27T08:58:36.208Z,10.83
2024-02-27T09:01:03.705Z,10.71
2024-02-27T09:03:31.130Z,10.95
2024-02-27T09:05:58.083Z,11.06
2024-02-27T09:08:25.038Z,11.02
2024-02-27T09:10:51.976Z,11.13
2024-02-27T09:13:18.789Z,11.06
2024-02-27T09:15:45.919Z,11.13
2024-02-27T09:18:14.142Z,11.12
2024-02-27T09:20:44.641Z,11.17
2024-02-27T09:23:11.850Z,11.34
2024-02-27T09:25:39.488Z,11.44
2024-02-27T09:28:06.653Z,11.43
2024-02-27T09:30:33.643Z,11.25
2024-02-27T09:33:01.055Z,11.25
2024-02-27T09:35:28.028Z,11.30
2024-02-27T09:37:57.809Z,11.33
2024-02-27T09:40:26.179Z,11.34
2024-02-27T09:42:57.799Z,11.19
2024-02-27T09:45:27.350Z,11.14
2024-02-27T09:47:59.146Z,11.22
2024-02-27T09:50:29.105Z,11.24
2024-02-27T09:52:57.422Z,11.32
2024-02-27T09:55:26.891Z,11.41
2024-02-27T09:57:54.509Z,11.42
2024-02-27T10:00:22.412Z,11.45
2024-02-27T10:02:51.174Z,11.54
2024-02-27T10:05:23.143Z,11.66
2024-02-27T10:07:51.649Z,11.61
2024-02-27T10:10:19.704Z,11.77
2024-02-27T10:12:47.666Z,11.68
2024-02-27T10:15:16.049Z,11.93
2024-02-27T10:17:46.811Z,12.14
2024-02-27T10:20:18.875Z,12.43
2024-02-27T10:22:46.201Z,12.53
2024-02-27T10:25:16.104Z,12.57
2024-02-27T10:27:44.011Z,12.70
2024-02-27T10:30:13.044Z,12.66
2024-02-27T10:32:43.954Z,12.93
2024-02-27T10:35:12.752Z,13.14
2024-02-27T10:37:40.290Z,13.33
2024-02-27T10:40:09.106Z,13.51
2024-02-27T10:42:38.781Z,13.41
2024-02-27T10:45:07.035Z,13.57
2024-02-27T10:47:35.061Z,13.72
2024-02-27T10:50:07.280Z,13.81
2024-02-27T10:52:36.637Z,14.01
2024-02-27T10:55:04.495Z,14.05
2024-02-27T10:57:34.663Z,14.41
2024-02-27T11:00:01.794Z,14.66
2024-02-27T11:02:30.432Z,14.88
2024-02-27T11:05:01.173Z,15.05
2024-02-27T11:07:29.637Z,15.22
2024-02-27T11:09:59.585Z,15.36
2024-02-27T11:12:30.747Z,15.35
2024-02-27T11:15:05.613Z,15.27
2024-02-27T11:17:39.508Z,15.34
2024-02-27T11:20:08.477Z,15.50
2024-02-27T11:22:36.668Z,15.58
2024-02-27T11:25:05.104Z,15.59
2024-02-27T11:27:34.005Z,15.83
2024-02-27T11:30:02.717Z,15.84
2024-02-27T11:32:35.157Z,15.87
2024-02-27T11:35:04.276Z,16.12
2024-02-27T11:37:31.202Z,16.28
2024-02-27T11:39:59.307Z,16.49
2024-02-27T11:42:38.621Z,16.27
2024-02-27T11:45:10.186Z,16.32
2024-02-27T11:47:43.610Z,16.55
2024-02-27T11:50:14.480Z,16.41
2024-02-27T11:52:46.477Z,16.60
2024-02-27T11:55:13.895Z,16.81
2024-02-27T11:57:41.191Z,16.92
2024-02-27T12:00:17.584Z,17.14
2024-02-27T12:02:50.135Z,17.31
2024-02-27T12:05:19.607Z,17.53
2024-02-27T12:07:46.775Z,17.67
2024-02-27T12:10:15.311Z,17.76
2024-02-27T12:12:42.446Z,17.93
2024-02-27T12:15:11.147Z,18.03
2024-02-27T12:17:38.637Z,18.13
2024-02-27T12:20:12.363Z,18.26
2024-02-27T12:22:46.655Z,18.34
2024-02-27T12:25:16.471Z,18.33
2024-02-27T12:27:47.730Z,18.46
2024-02-27T12:30:15.085Z,18.48
2024-02-27T12:32:46.444Z,18.46
2024-02-27T12:35:15.183Z,18.51
2024-02-27T12:37:49.976Z,18.53
2024-02-27T12:40:20.415Z,18.62
2024-02-27T12:42:51.783Z,18.65
2024-02-27T12:45:19.715Z,18.73
2024-02-27T12:47:51.836Z,18.72
2024-02-27T12:50:25.951Z,18.81
2024-02-27T12:53:02.107Z,18.75
2024-02-27T12:55:37.856Z,18.82
2024-02-27T12:58:04.732Z,18.81
2024-02-27T13:00:33.321Z,18.78
2024-02-27T13:03:00.644Z,18.80
2024-02-27T13:05:28.197Z,18.70
2024-02-27T13:07:56.909Z,18.77
2024-02-27T13:10:24.479Z,18.71
2024-02-27T13:13:14.493Z,18.63
2024-02-27T13:15:47.491Z,18.59
2024-02-27T13:18:15.191Z,18.58
2024-02-27T13:20:43.158Z,18.42
2024-02-27T13:23:20.924Z,18.33
2024-02-27T13:25:54.142Z,18.30
2024-02-27T13:28:21.195Z,18.33
2024-02-27T13:30:48.158Z,18.24
2024-02-27T13:33:16.265Z,18.11
2024-02-27T13:35:43.340Z,17.98
2024-02-27T13:38:10.203Z,17.87
2024-02-27T13:40:37.229Z,17.82
2024-02-27T13:43:04.356Z,17.85
2024-02-27T13:45:31.549Z,17.92
2024-02-27T13:47:58.720Z,17.96
2024-02-27T13:50:26.027Z,17.98
2024-02-27T13:52:53.068Z,18.01
2024-02-27T13:55:20.001Z,18.04
2024-02-27T13:57:46.990Z,18.01
2024-02-27T14:00:14.444Z,18.03
2024-02-27T14:02:41.689Z,18.09
2024-02-27T14:05:08.736Z,18.19
2024-02-27T14:07:40.939Z,18.35
2024-02-27T14:10:09.338Z,18.33
2024-02-27T14:12:36.241Z,18.29
2024-02-27T14:15:04.245Z,18.34
2024-02-27T14:17:34.145Z,18.46
2024-02-27T14:20:01.933Z,18.45
2024-02-27T14:22:29.117Z,18.59
2024-02-27T14:24:56.645Z,18.54
2024-02-27T14:27:23.742Z,18.58
2024-02-27T14:29:50.811Z,18.49
2024-02-27T14:32:17.984Z,18.43
2024-02-27T14:34:48.730Z,18.41
2024-02-27T14:37:15.719Z,18.43
2024-02-27T14:39:42.612Z,18.48
2024-02-27T14:42:09.599Z,18.63
2024-02-27T14:44:36.701Z,18.58
2024-02-27T14:47:07.179Z,18.71
2024-02-27T14:49:34.159Z,18.74
2024-02-27T14:52:03.642Z,18.79
2024-02-27T14:54:30.501Z,18.77
2024-02-27T14:56:57.352Z,18.69
2024-02-27T14:59:24.198Z,18.60
2024-02-27T15:01:57.329Z,18.52
2024-02-27T15:04:27.668Z,18.52
2024-02-27T15:06:54.774Z,18.47
2024-02-27T15:09:24.686Z,18.26
2024-02-27T15:11:51.642Z,18.27
2024-02-27T15:14:18.537Z,18.26
2024-02-27T15:16:45.336Z,18.09
2024-02-27T15:19:12.365Z,18.21
2024-02-27T15:21:40.600Z,18.20
2024-02-27T15:24:08.095Z,18.19
2024-02-27T15:26:36.778Z,17.98
2024-02-27T15:29:04.102Z,17.98
2024-02-27T15:31:31.057Z,17.92
2024-02-27T15:33:58.046Z,17.68
2024-02-27T15:36:25.073Z,17.70
2024-02-27T15:38:51.943Z,17.56
2024-02-27T15:41:18.866Z,17.80
2024-02-27T15:43:46.322Z,17.92
2024-02-27T15:46:13.182Z,18.06
2024-02-27T15:48:40.385Z,18.08
2024-02-27T15:51:11.746Z,17.92
2024-02-27T15:53:39.929Z,17.80
2024-02-27T15:56:10.867Z,17.76
2024-02-27T15:58:38.812Z,17.89
2024-02-27T16:01:06.282Z,17.85
2024-02-27T16:03:58.353Z,17.82
2024-02-27T16:06:41.119Z,17.72
2024-02-27T16:09:08.030Z,17.56
2024-02-27T16:11:34.931Z,17.39
2024-02-27T16:14:01.744Z,17.46
2024-02-27T16:16:28.578Z,17.45
2024-02-27T16:18:57.295Z,17.49
2024-02-27T16:21:39.697Z,17.25
2024-02-27T16:24:09.161Z,16.93
2024-02-27T16:26:37.101Z,16.83
2024-02-27T16:29:06.337Z,16.95
2024-02-27T16:31:36.322Z,16.94
2024-02-27T16:34:03.293Z,16.95
2024-02-27T16:36:30.376Z,16.81
2024-02-27T16:38:57.394Z,16.85
2024-02-27T16:41:24.273Z,16.80
2024-02-27T16:43:51.125Z,16.76
2024-02-27T16:46:18.735Z,16.78
2024-02-27T16:48:45.696Z,16.78
2024-02-27T16:51:12.733Z,16.80
2024-02-27T16:53:39.721Z,16.66
2024-02-27T16:56:07.010Z,16.65
2024-02-27T16:58:34.622Z,16.62
2024-02-27T17:01:02.273Z,16.52
2024-02-27T17:03:30.010Z,16.45
2024-02-27T17:06:01.422Z,16.45
2024-02-27T17:08:28.327Z,16.33
2024-02-27T17:10:56.398Z,16.35
2024-02-27T17:13:23.253Z,16.27
2024-02-27T17:15:50.188Z,16.17
2024-02-27T17:18:17.429Z,16.03
2024-02-27T17:20:44.411Z,16.13
2024-02-27T17:23:17.265Z,16.12
2024-02-27T17:25:49.122Z,16.07
2024-02-27T17:28:15.933Z,16.06
2024-02-27T17:30:42.989Z,15.99
2024-02-27T17:33:11.428Z,15.96
2024-02-27T17:35:38.468Z,15.79
2024-02-27T17:38:05.316Z,15.78
2024-02-27T17:40:32.265Z,15.74
2024-02-27T17:42:59.159Z,15.78
2024-02-27T17:45:26.021Z,15.82
2024-02-27T17:47:53.020Z,15.83
2024-02-27T17:50:19.866Z,15.68
2024-02-27T17:52:46.709Z,15.76
2024-02-27T17:55:13.769Z,15.77
2024-02-27T17:57:41.575Z,15.81
2024-02-27T18:00:09.087Z,15.81
2024-02-27T18:02:35.919Z,15.83
2024-02-27T18:05:02.737Z,15.86
2024-02-27T18:07:29.660Z,15.86
2024-02-27T18:09:56.612Z,15.83
2024-02-27T18:12:23.513Z,15.86
2024-02-27T18:14:50.395Z,15.86
2024-02-27T18:17:17.191Z,15.86
2024-02-27T18:19:44.824Z,15.86
2024-02-27T18:22:11.795Z,15.88
2024-02-27T18:24:38.680Z,15.88
2024-02-27T18:27:06.579Z,15.87
2024-02-27T18:29:35.140Z,15.80
2024-02-27T18:32:02.122Z,15.56
2024-02-27T18:34:29.564Z,15.51
2024-02-27T18:36:56.445Z,15.42
2024-02-27T18:39:24.362Z,15.38
2024-02-27T18:41:51.217Z,15.37
2024-02-27T18:44:18.014Z,15.46
2024-02-27T18:46:44.896Z,15.56
2024-02-27T18:49:11.791Z,15.62
2024-02-27T18:51:41.845Z,15.69
2024-02-27T18:54:09.225Z,15.73
2024-02-27T18:56:38.132Z,15.76
2024-02-27T18:59:05.124Z,15.81
2024-02-27T19:01:33.223Z,15.84
2024-02-27T19:04:00.102Z,15.86
2024-02-27T19:06:27.346Z,15.90
2024-02-27T19:08:54.403Z,15.93
2024-02-27T19:11:21.754Z,15.93
2024-02-27T19:13:48.864Z,15.97
2024-02-27T19:16:17.132Z,16.00
2024-02-27T19:18:44.116Z,15.99
2024-02-27T19:21:11.030Z,15.96
2024-02-27T19:23:37.928Z,15.94
2024-02-27T19:26:04.933Z,15.95
2024-02-27T19:28:34.517Z,15.96
2024-02-27T19:31:01.398Z,15.96
2024-02-27T19:33:28.246Z,15.97
2024-02-27T19:35:55.179Z,15.97
2024-02-27T19:38:22.094Z,15.96
2024-02-27T19:40:48.971Z,15.96
2024-02-27T19:43:16.337Z,15.92
2024-02-27T19:45:44.666Z,15.89
2024-02-27T19:48:11.780Z,15.90
2024-02-27T19:50:38.685Z,15.85
2024-02-27T19:53:07.515Z,15.82
2024-02-27T19:55:34.664Z,15.79
2024-02-27T19:58:01.519Z,15.84
2024-02-27T20:00:29.317Z,15.82
2024-02-27T20:02:56.251Z,15.82
2024-02-27T20:05:23.171Z,15.76
2024-02-27T20:07:50.854Z,15.75
2024-02-27T20:10:18.113Z,15.78
2024-02-27T20:12:45.123Z,15.79
2024-02-27T20:15:12.226Z,15.80
2024-02-27T20:17:39.111Z,15.81
2024-02-27T20:20:06.704Z,15.76
2024-02-27T20:22:33.540Z,15.74
2024-02-27T20:25:00.970Z,15.61
2024-02-27T20:27:28.385Z,15.45
2024-02-27T20:29:59.203Z,15.39
2024-02-27T20:32:27.937Z,15.41
2024-02-27T20:34:55.143Z,15.36
2024-02-27T20:37:22.021Z,15.32
2024-02-27T20:39:49.294Z,15.26
2024-02-27T20:42:16.336Z,15.27
2024-02-27T20:44:43.309Z,15.27
2024-02-27T20:47:10.589Z,15.29
2024-02-27T20:49:37.435Z,15.28
2024-02-27T20:52:04.433Z,15.26
2024-02-27T20:54:32.092Z,15.24
2024-02-27T20:56:59.719Z,15.24
2024-02-27T20:59:26.699Z,15.27
2024-02-27T21:01:53.521Z,15.25
2024-02-27T21:04:20.397Z,15.17
2024-02-27T21:06:47.802Z,15.07
2024-02-27T21:09:14.754Z,15.11
2024-02-27T21:11:41.655Z,15.19
2024-02-27T21:14:08.779Z,15.12
2024-02-27T21:16:35.637Z,15.11
2024-02-27T21:19:02.483Z,15.15
2024-02-27T21:21:29.426Z,15.04
2024-02-27T21:23:56.953Z,15.07
2024-02-27T21:26:25.132Z,15.12
2024-02-27T21:28:51.983Z,15.14
2024-02-27T21:31:18.813Z,15.18
2024-02-27T21:33:45.805Z,15.21
2024-02-27T21:36:12.979Z,15.23
2024-02-27T21:38:39.985Z,15.24
2024-02-27T21:41:06.914Z,15.25
2024-02-27T21:43:33.901Z,15.22
2024-02-27T21:46:02.545Z,15.24
2024-02-27T21:48:29.614Z,15.26
2024-02-27T21:50:56.504Z,15.27
2024-02-27T21:53:23.392Z,15.29
2024-02-27T21:55:50.322Z,15.28
2024-02-27T21:58:17.183Z,15.31
2024-02-27T22:00:44.461Z,15.33
2024-02-27T22:03:13.340Z,15.34
2024-02-27T22:05:40.272Z,15.33
2024-02-27T22:08:07.513Z,15.33
2024-02-27T22:10:34.438Z,15.37
2024-02-27T22:13:01.461Z,15.37
2024-02-27T22:15:30.067Z,15.39
2024-02-27T22:17:57.118Z,15.41
2024-02-27T22:20:24.083Z,15.39
2024-02-27T22:22:51.620Z,15.41
2024-02-27T22:25:18.608Z,15.39
2024-02-27T22:27:45.616Z,15.36
2024-02-27T22:30:15.966Z,15.38
2024-02-27T22:32:43.570Z,15.35
2024-02-27T22:35:10.715Z,15.35
2024-02-27T22:37:37.622Z,15.36
2024-02-27T22:40:05.758Z,15.39
2024-02-27T22:42:32.747Z,15.39
2024-02-27T22:44:59.738Z,15.42
2024-02-27T22:47:26.681Z,15.43
2024-02-27T22:49:53.589Z,15.38
2024-02-27T22:52:20.529Z,15.40
2024-02-27T22:54:47.570Z,15.42
2024-02-27T22:57:14.593Z,15.42
2024-02-27T22:59:41.455Z,15.41
2024-02-27T23:02:08.642Z,15.42
2024-02-27T23:04:35.526Z,15.42
2024-02-27T23:07:02.569Z,15.43
2024-02-27T23:09:30.667Z,15.45
2024-02-27T23:11:57.671Z,15.44
2024-02-27T23:14:24.603Z,15.44
2024-02-27T23:16:51.463Z,15.43
2024-02-27T23:19:18.361Z,15.42
2024-02-27T23:21:46.897Z,15.41
2024-02-27T23:24:15.601Z,15.43
2024-02-27T23:26:42.622Z,15.41
2024-02-27T23:29:09.816Z,15.39
2024-02-27T23:31:36.933Z,15.38
2024-02-27T23:34:05.991Z,15.37
2024-02-27T23:36:33.140Z,15.34
2024-02-27T23:39:00.074Z,15.35
2024-02-27T23:41:26.951Z,15.36
2024-02-27T23:43:53.845Z,15.38
2024-02-27T23:46:22.150Z,15.32
2024-02-27T23:48:49.801Z,15.29
2024-02-27T23:51:16.812Z,15.36
2024-02-27T23:53:43.772Z,15.39
2024-02-27T23:56:10.625Z,15.39
2024-02-27T23:58:37.741Z,15.40
